Seabourn Quest — C6YZ5 — position and weather

sailwx.info

Track history (hours):
 
Tides and Currents Weather Stations Pressure Air Temp Water Temp Dewpoint Dewpoint Depression Visibility Wind Speed Wind Dir Waves Ship Positions

Seabourn Quest

Last reported at 2016-Jul-25 11:20 UTC. Time now 2016-Jul-27 05:40 UTC.
Position N 58°50' E 004°32'.

Length 198 m; draft 6.7 m.

Type: Ship. MMSI: 311038900.

Date/timePositionNaut miles runAvg speedWind from/ knotsBaromVisibWave heightAir tempDewpointWater temp
2016-Jul-25 11:20N 58°50' E 004°32'1113.6
2016-Jul-25 10:33N 58°43' E 004°47'1413.6
2016-Jul-25 09:34N 58°33' E 005°06'1313.4
2016-Jul-25 08:33N 58°22' E 005°21'1413.5
2016-Jul-25 07:31N 58°13' E 005°41'1313.5
2016-Jul-25 06:33N 58°04' E 005°60'1413.8
2016-Jul-25 05:33N 57°56' E 006°19'1414.3
2016-Jul-25 04:33N 57°47' E 006°41'4714.4
2016-Jul-25 01:16N 57°46' E 008°10'2218.9
2016-Jul-25 00:05N 57°46' E 008°52'1018.8
2016-Jul-24 23:32N 57°47' E 009°11'3718.7
2016-Jul-24 21:34N 57°50' E 010°20'1615.8
2016-Jul-24 20:34N 57°45' E 010°48'1817.6
2016-Jul-24 19:33N 57°27' E 010°45'1716.9
2016-Jul-24 18:34N 57°10' E 010°46'1615.6
2016-Jul-24 17:34N 56°55' E 010°50'1111.1
2016-Jul-24 16:33N 56°55' E 010°29'1310.6
2016-Jul-24 15:20N 57°01' E 010°08'6 8.1
2016-Jul-24 14:34N 57°04' E 009°58'2 1.4
2016-Jul-24 13:30N 57°03' E 009°55'0 0.0
2016-Jul-24 12:24N 57°03' E 009°55'0 0.0
2016-Jul-24 11:32N 57°03' E 009°55'0 0.0
2016-Jul-24 10:32N 57°03' E 009°55'0 0.0
2016-Jul-24 09:29N 57°03' E 009°55'0 0.0
2016-Jul-24 08:32N 57°03' E 009°55'0 0.0
2016-Jul-24 07:32N 57°03' E 009°55'0 0.0
2016-Jul-24 06:32N 57°03' E 009°55'0 0.0
2016-Jul-24 05:29N 57°03' E 009°55'1 1.0
2016-Jul-24 04:33N 57°03' E 009°57'8 7.9
2016-Jul-24 03:33N 57°00' E 010°10'1110.9
2016-Jul-24 02:33N 56°56' E 010°29'1211.8
2016-Jul-24 01:34N 56°50' E 010°48'1312.7
2016-Jul-24 00:33N 56°40' E 011°02'9 9.1
2016-Jul-23 23:33N 56°32' E 011°06'9 8.8
2016-Jul-23 22:33N 56°27' E 011°20'9 8.8
2016-Jul-23 21:33N 56°24' E 011°35'9 8.8
2016-Jul-23 20:33N 56°21' E 011°50'9 8.7
2016-Jul-23 19:33N 56°19' E 012°05'8 8.4
2016-Jul-23 18:33N 56°14' E 012°17'9 9.3
2016-Jul-23 17:33N 56°08' E 012°30'1515.0
2016-Jul-23 16:33N 55°55' E 012°45'1313.1
2016-Jul-23 15:33N 55°43' E 012°38'0 0.4
2016-Jul-23 14:32N 55°43' E 012°37'0 0.0
2016-Jul-23 13:32N 55°43' E 012°37'0 0.0
2016-Jul-23 12:31N 55°43' E 012°37'0 0.0
2016-Jul-23 11:31N 55°43' E 012°37'0 0.0
2016-Jul-23 10:32N 55°43' E 012°37'0 0.0
2016-Jul-23 09:32N 55°43' E 012°37'0 0.0
2016-Jul-23 08:31N 55°43' E 012°37'0 0.0
2016-Jul-23 07:31N 55°43' E 012°37'0 0.0
2016-Jul-23 06:31N 55°43' E 012°37'0 0.0
2016-Jul-23 04:33N 55°43' E 012°37'3 2.8
2016-Jul-23 03:33N 55°41' E 012°41'9 8.7
2016-Jul-23 02:33N 55°33' E 012°43'1313.2
2016-Jul-23 01:33N 55°19' E 012°40'1413.6
2016-Jul-23 00:33N 55°16' E 013°03'1414.4
2016-Jul-22 23:33N 55°15' E 013°28'1414.2
2016-Jul-22 22:33N 55°14' E 013°53'1414.3
2016-Jul-22 21:33N 55°14' E 014°18'1514.8
2016-Jul-22 20:33N 55°26' E 014°34'1514.7
2016-Jul-22 19:33N 55°33' E 014°56'1514.6
2016-Jul-22 18:33N 55°40' E 015°19'34314.7
2016-Jul-21 19:15N 59°36' E 023°06'1115.5
2016-Jul-21 18:33N 59°38' E 023°27'1615.5
2016-Jul-21 17:33N 59°43' E 023°57'1915.7
2016-Jul-21 16:21N 59°49' E 024°33'58 3.7
2016-Jul-21 00:32N 60°00' E 026°26'1515.1
2016-Jul-20 23:32N 59°60' E 026°56'1514.8
2016-Jul-20 22:33N 60°05' E 027°23'1614.9
2016-Jul-20 21:30N 60°11' E 027°51'1515.3
2016-Jul-20 20:33N 60°07' E 028°19'1514.8
2016-Jul-20 19:33N 60°03' E 028°48'2913.6
2016-Jul-20 17:22N 59°59' E 029°46'1112.9
2016-Jul-20 16:32N 59°54' E 030°06'6 5.6
2016-Jul-20 15:33N 59°56' E 030°16'0 0.2
2016-Jul-20 14:30N 59°56' E 030°16'0 0.0
2016-Jul-20 13:31N 59°56' E 030°16'0 0.0
2016-Jul-20 12:31N 59°56' E 030°16'0 0.0
2016-Jul-20 11:30N 59°56' E 030°16'0 0.0
2016-Jul-20 10:32N 59°56' E 030°16'0 0.0
2016-Jul-20 09:34N 59°56' E 030°16'0 0.0
2016-Jul-20 08:33N 59°56' E 030°16'0 0.0
2016-Jul-20 07:33N 59°56' E 030°16'0 0.0
2016-Jul-20 06:33N 59°56' E 030°16'0 0.0
2016-Jul-20 05:32N 59°56' E 030°16'0 0.0
2016-Jul-20 04:32N 59°56' E 030°16'0 0.0
2016-Jul-20 03:31N 59°56' E 030°16'0 0.0
2016-Jul-20 02:32N 59°56' E 030°16'0 0.0
2016-Jul-20 01:33N 59°56' E 030°16'0 0.0
2016-Jul-20 00:32N 59°56' E 030°16'0 0.0
2016-Jul-19 23:29N 59°56' E 030°16'0 0.0
2016-Jul-19 22:33N 59°56' E 030°16'0 0.0
2016-Jul-19 21:32N 59°56' E 030°16'0 0.0
2016-Jul-19 20:33N 59°56' E 030°16'0 0.0
2016-Jul-19 19:32N 59°56' E 030°16'0 0.0
2016-Jul-19 18:33N 59°56' E 030°16'0 0.0
2016-Jul-19 17:32N 59°56' E 030°16'0 0.0
2016-Jul-19 16:31N 59°56' E 030°16'0 0.0
2016-Jul-19 15:33N 59°56' E 030°16'0 0.0
2016-Jul-19 14:31N 59°56' E 030°16'0 0.0
2016-Jul-19 13:33N 59°56' E 030°16'0 0.0
2016-Jul-19 12:32N 59°56' E 030°16'0 0.0
2016-Jul-19 11:33N 59°56' E 030°16'0 0.0
2016-Jul-19 10:33N 59°56' E 030°16'0 0.0
2016-Jul-19 09:33N 59°56' E 030°16'0 0.0
2016-Jul-19 08:31N 59°56' E 030°16'0 0.0
2016-Jul-19 07:33N 59°56' E 030°16'0 0.0
2016-Jul-19 04:32N 59°56' E 030°16'0 0.0
2016-Jul-19 03:31N 59°56' E 030°16'0 0.0
2016-Jul-19 02:33N 59°56' E 030°16'0 0.0
2016-Jul-19 01:32N 59°56' E 030°16'0 0.0
2016-Jul-19 00:31N 59°56' E 030°16'0 0.0
2016-Jul-18 23:31N 59°56' E 030°16'0 0.0
2016-Jul-18 22:33N 59°56' E 030°16'0 0.0
2016-Jul-18 21:32N 59°56' E 030°16'0 0.0
2016-Jul-18 20:32N 59°56' E 030°16'0 0.0
2016-Jul-18 19:33N 59°56' E 030°16'0 0.0
2016-Jul-18 18:31N 59°56' E 030°16'0 0.0
2016-Jul-18 17:31N 59°56' E 030°16'0 0.0
2016-Jul-18 16:31N 59°56' E 030°16'0 0.0
2016-Jul-18 15:33N 59°56' E 030°16'0 0.0
2016-Jul-18 14:33N 59°56' E 030°16'0 0.0
2016-Jul-18 13:31N 59°56' E 030°16'0 0.0
2016-Jul-18 12:32N 59°56' E 030°16'0 0.0
2016-Jul-18 11:31N 59°56' E 030°16'0 0.0
2016-Jul-18 10:31N 59°56' E 030°16'0 0.0
2016-Jul-18 09:31N 59°56' E 030°16'0 0.0
2016-Jul-18 08:31N 59°56' E 030°16'0 0.0
2016-Jul-18 07:32N 59°56' E 030°16'0 0.0
2016-Jul-18 06:33N 59°56' E 030°16'0 0.0
2016-Jul-18 05:33N 59°56' E 030°16'0 0.0
2016-Jul-18 04:33N 59°56' E 030°16'4 4.1
2016-Jul-18 03:33N 59°53' E 030°10'1010.2
2016-Jul-18 02:33N 59°57' E 029°51'2411.1
2016-Jul-18 00:24N 60°02' E 029°04'1214.2
2016-Jul-17 23:33N 60°02' E 028°40'1413.6
2016-Jul-17 22:33N 60°07' E 028°15'1414.3
2016-Jul-17 21:33N 60°11' E 027°47'1414.2
2016-Jul-17 20:33N 60°04' E 027°22'1513.8
2016-Jul-17 19:30N 59°59' E 026°55'1314.3
2016-Jul-17 18:34N 59°58' E 026°28'5914.5
2016-Jul-17 14:31N 59°31' E 024°45'28 2.5
2016-Jul-17 03:27N 59°29' E 023°50'1314.4
2016-Jul-17 02:33N 59°28' E 023°24'16113.4
2016-Jul-16 14:33N 59°21' E 018°08'1 0.7
2016-Jul-16 13:33N 59°21' E 018°07'0 0.0
2016-Jul-16 12:33N 59°21' E 018°07'0 0.0
2016-Jul-16 11:33N 59°21' E 018°07'0 0.0
2016-Jul-16 10:32N 59°21' E 018°07'0 0.0
2016-Jul-16 09:33N 59°21' E 018°07'0 0.0
2016-Jul-16 08:33N 59°21' E 018°07'0 0.0
2016-Jul-16 07:32N 59°21' E 018°07'0 0.0
2016-Jul-16 06:33N 59°21' E 018°07'112 9.7
2016-Jul-15 19:06N 59°26' E 021°46'814.5
2016-Jul-15 18:31N 59°27' E 022°02'4214.3
2016-Jul-15 15:34N 59°39' E 023°22'1514.6
2016-Jul-15 14:34N 59°43' E 023°50'  
Track history (hours):
 
Tides and Currents Weather Stations Pressure Air Temp Water Temp Dewpoint Dewpoint Depression Visibility Wind Speed Wind Dir Waves Ship Positions

Seabourn Quest

Last reported at 2016-Jul-25 11:20 UTC. Time now 2016-Jul-27 05:40 UTC.
Position N 58°50' E 004°32'.

Length 198 m; draft 6.7 m.

Type: Ship. MMSI: 311038900.

Date/timePositionNaut miles runAvg speedWind from/ knotsBaromVisibWave heightAir tempDewpointWater temp
2016-Jul-25 11:20N 58°50' E 004°32'1113.6
2016-Jul-25 10:33N 58°43' E 004°47'1413.6
2016-Jul-25 09:34N 58°33' E 005°06'1313.4
2016-Jul-25 08:33N 58°22' E 005°21'1413.5
2016-Jul-25 07:31N 58°13' E 005°41'1313.5
2016-Jul-25 06:33N 58°04' E 005°60'1413.8
2016-Jul-25 05:33N 57°56' E 006°19'1414.3
2016-Jul-25 04:33N 57°47' E 006°41'4714.4
2016-Jul-25 01:16N 57°46' E 008°10'2218.9
2016-Jul-25 00:05N 57°46' E 008°52'1018.8
2016-Jul-24 23:32N 57°47' E 009°11'3718.7
2016-Jul-24 21:34N 57°50' E 010°20'1615.8
2016-Jul-24 20:34N 57°45' E 010°48'1817.6
2016-Jul-24 19:33N 57°27' E 010°45'1716.9
2016-Jul-24 18:34N 57°10' E 010°46'1615.6
2016-Jul-24 17:34N 56°55' E 010°50'1111.1
2016-Jul-24 16:33N 56°55' E 010°29'1310.6
2016-Jul-24 15:20N 57°01' E 010°08'6 8.1
2016-Jul-24 14:34N 57°04' E 009°58'2 1.4
2016-Jul-24 13:30N 57°03' E 009°55'0 0.0
2016-Jul-24 12:24N 57°03' E 009°55'0 0.0
2016-Jul-24 11:32N 57°03' E 009°55'0 0.0
2016-Jul-24 10:32N 57°03' E 009°55'0 0.0
2016-Jul-24 09:29N 57°03' E 009°55'0 0.0
2016-Jul-24 08:32N 57°03' E 009°55'0 0.0
2016-Jul-24 07:32N 57°03' E 009°55'0 0.0
2016-Jul-24 06:32N 57°03' E 009°55'0 0.0
2016-Jul-24 05:29N 57°03' E 009°55'1 1.0
2016-Jul-24 04:33N 57°03' E 009°57'8 7.9
2016-Jul-24 03:33N 57°00' E 010°10'1110.9
2016-Jul-24 02:33N 56°56' E 010°29'1211.8
2016-Jul-24 01:34N 56°50' E 010°48'1312.7
2016-Jul-24 00:33N 56°40' E 011°02'9 9.1
2016-Jul-23 23:33N 56°32' E 011°06'9 8.8
2016-Jul-23 22:33N 56°27' E 011°20'9 8.8
2016-Jul-23 21:33N 56°24' E 011°35'9 8.8
2016-Jul-23 20:33N 56°21' E 011°50'9 8.7
2016-Jul-23 19:33N 56°19' E 012°05'8 8.4
2016-Jul-23 18:33N 56°14' E 012°17'9 9.3
2016-Jul-23 17:33N 56°08' E 012°30'1515.0
2016-Jul-23 16:33N 55°55' E 012°45'1313.1
2016-Jul-23 15:33N 55°43' E 012°38'0 0.4
2016-Jul-23 14:32N 55°43' E 012°37'0 0.0
2016-Jul-23 13:32N 55°43' E 012°37'0 0.0
2016-Jul-23 12:31N 55°43' E 012°37'0 0.0
2016-Jul-23 11:31N 55°43' E 012°37'0 0.0
2016-Jul-23 10:32N 55°43' E 012°37'0 0.0
2016-Jul-23 09:32N 55°43' E 012°37'0 0.0
2016-Jul-23 08:31N 55°43' E 012°37'0 0.0
2016-Jul-23 07:31N 55°43' E 012°37'0 0.0
2016-Jul-23 06:31N 55°43' E 012°37'0 0.0
2016-Jul-23 04:33N 55°43' E 012°37'3 2.8
2016-Jul-23 03:33N 55°41' E 012°41'9 8.7
2016-Jul-23 02:33N 55°33' E 012°43'1313.2
2016-Jul-23 01:33N 55°19' E 012°40'1413.6
2016-Jul-23 00:33N 55°16' E 013°03'1414.4
2016-Jul-22 23:33N 55°15' E 013°28'1414.2
2016-Jul-22 22:33N 55°14' E 013°53'1414.3
2016-Jul-22 21:33N 55°14' E 014°18'1514.8
2016-Jul-22 20:33N 55°26' E 014°34'1514.7
2016-Jul-22 19:33N 55°33' E 014°56'1514.6
2016-Jul-22 18:33N 55°40' E 015°19'34314.7
2016-Jul-21 19:15N 59°36' E 023°06'1115.5
2016-Jul-21 18:33N 59°38' E 023°27'1615.5
2016-Jul-21 17:33N 59°43' E 023°57'1915.7
2016-Jul-21 16:21N 59°49' E 024°33'58 3.7
2016-Jul-21 00:32N 60°00' E 026°26'1515.1
2016-Jul-20 23:32N 59°60' E 026°56'1514.8
2016-Jul-20 22:33N 60°05' E 027°23'1614.9
2016-Jul-20 21:30N 60°11' E 027°51'1515.3
2016-Jul-20 20:33N 60°07' E 028°19'1514.8
2016-Jul-20 19:33N 60°03' E 028°48'2913.6
2016-Jul-20 17:22N 59°59' E 029°46'1112.9
2016-Jul-20 16:32N 59°54' E 030°06'6 5.6
2016-Jul-20 15:33N 59°56' E 030°16'0 0.2
2016-Jul-20 14:30N 59°56' E 030°16'0 0.0
2016-Jul-20 13:31N 59°56' E 030°16'0 0.0
2016-Jul-20 12:31N 59°56' E 030°16'0 0.0
2016-Jul-20 11:30N 59°56' E 030°16'0 0.0
2016-Jul-20 10:32N 59°56' E 030°16'0 0.0
2016-Jul-20 09:34N 59°56' E 030°16'0 0.0
2016-Jul-20 08:33N 59°56' E 030°16'0 0.0
2016-Jul-20 07:33N 59°56' E 030°16'0 0.0
2016-Jul-20 06:33N 59°56' E 030°16'0 0.0
2016-Jul-20 05:32N 59°56' E 030°16'0 0.0
2016-Jul-20 04:32N 59°56' E 030°16'0 0.0
2016-Jul-20 03:31N 59°56' E 030°16'0 0.0
2016-Jul-20 02:32N 59°56' E 030°16'0 0.0
2016-Jul-20 01:33N 59°56' E 030°16'0 0.0
2016-Jul-20 00:32N 59°56' E 030°16'0 0.0
2016-Jul-19 23:29N 59°56' E 030°16'0 0.0
2016-Jul-19 22:33N 59°56' E 030°16'0 0.0
2016-Jul-19 21:32N 59°56' E 030°16'0 0.0
2016-Jul-19 20:33N 59°56' E 030°16'0 0.0
2016-Jul-19 19:32N 59°56' E 030°16'0 0.0
2016-Jul-19 18:33N 59°56' E 030°16'0 0.0
2016-Jul-19 17:32N 59°56' E 030°16'0 0.0
2016-Jul-19 16:31N 59°56' E 030°16'0 0.0
2016-Jul-19 15:33N 59°56' E 030°16'0 0.0
2016-Jul-19 14:31N 59°56' E 030°16'0 0.0
2016-Jul-19 13:33N 59°56' E 030°16'0 0.0
2016-Jul-19 12:32N 59°56' E 030°16'0 0.0
2016-Jul-19 11:33N 59°56' E 030°16'0 0.0
2016-Jul-19 10:33N 59°56' E 030°16'0 0.0
2016-Jul-19 09:33N 59°56' E 030°16'0 0.0
2016-Jul-19 08:31N 59°56' E 030°16'0 0.0
2016-Jul-19 07:33N 59°56' E 030°16'0 0.0
2016-Jul-19 04:32N 59°56' E 030°16'0 0.0
2016-Jul-19 03:31N 59°56' E 030°16'0 0.0
2016-Jul-19 02:33N 59°56' E 030°16'0 0.0
2016-Jul-19 01:32N 59°56' E 030°16'0 0.0
2016-Jul-19 00:31N 59°56' E 030°16'0 0.0
2016-Jul-18 23:31N 59°56' E 030°16'0 0.0
2016-Jul-18 22:33N 59°56' E 030°16'0 0.0
2016-Jul-18 21:32N 59°56' E 030°16'0 0.0
2016-Jul-18 20:32N 59°56' E 030°16'0 0.0
2016-Jul-18 19:33N 59°56' E 030°16'0 0.0
2016-Jul-18 18:31N 59°56' E 030°16'0 0.0
2016-Jul-18 17:31N 59°56' E 030°16'0 0.0
2016-Jul-18 16:31N 59°56' E 030°16'0 0.0
2016-Jul-18 15:33N 59°56' E 030°16'0 0.0
2016-Jul-18 14:33N 59°56' E 030°16'0 0.0
2016-Jul-18 13:31N 59°56' E 030°16'0 0.0
2016-Jul-18 12:32N 59°56' E 030°16'0 0.0
2016-Jul-18 11:31N 59°56' E 030°16'0 0.0
2016-Jul-18 10:31N 59°56' E 030°16'0 0.0
2016-Jul-18 09:31N 59°56' E 030°16'0 0.0
2016-Jul-18 08:31N 59°56' E 030°16'0 0.0
2016-Jul-18 07:32N 59°56' E 030°16'0 0.0
2016-Jul-18 06:33N 59°56' E 030°16'0 0.0
2016-Jul-18 05:33N 59°56' E 030°16'0 0.0
2016-Jul-18 04:33N 59°56' E 030°16'4 4.1
2016-Jul-18 03:33N 59°53' E 030°10'1010.2
2016-Jul-18 02:33N 59°57' E 029°51'2411.1
2016-Jul-18 00:24N 60°02' E 029°04'1214.2
2016-Jul-17 23:33N 60°02' E 028°40'1413.6
2016-Jul-17 22:33N 60°07' E 028°15'1414.3
2016-Jul-17 21:33N 60°11' E 027°47'1414.2
2016-Jul-17 20:33N 60°04' E 027°22'1513.8
2016-Jul-17 19:30N 59°59' E 026°55'1314.3
2016-Jul-17 18:34N 59°58' E 026°28'5914.5
2016-Jul-17 14:31N 59°31' E 024°45'28 2.5
2016-Jul-17 03:27N 59°29' E 023°50'1314.4
2016-Jul-17 02:33N 59°28' E 023°24'16113.4
2016-Jul-16 14:33N 59°21' E 018°08'1 0.7
2016-Jul-16 13:33N 59°21' E 018°07'0 0.0
2016-Jul-16 12:33N 59°21' E 018°07'0 0.0
2016-Jul-16 11:33N 59°21' E 018°07'0 0.0
2016-Jul-16 10:32N 59°21' E 018°07'0 0.0
2016-Jul-16 09:33N 59°21' E 018°07'0 0.0
2016-Jul-16 08:33N 59°21' E 018°07'0 0.0
2016-Jul-16 07:32N 59°21' E 018°07'0 0.0
2016-Jul-16 06:33N 59°21' E 018°07'112 9.7
2016-Jul-15 19:06N 59°26' E 021°46'814.5
2016-Jul-15 18:31N 59°27' E 022°02'4214.3
2016-Jul-15 15:34N 59°39' E 023°22'1514.6
2016-Jul-15 14:34N 59°43' E 023°50'  

Dump ship's entire track history